Aérodrome :
LOGIN :

S'inscrire | Disclaimer

   EN    FR    IT 

 










Légende :    VFR   VFR Marginal   IFR   IFR Intensif   IFR Très Intensif
Visi : 
Plafond : 
>= 8 km
>= 3000ft
5 à 8 km
1000 à 3000 ft
1500m à 5 km
500 à 1000 ft
800 à 1500m
200 à 500 ft
< 800m
< 200 ft
Symboles :   Orages  Brouillard  Fortes neiges  Fortes précipitations  Vent > 20 kt
SIGMETs :   Divers  Orages  Givrage  Turbulence  Onde Orograph.  Cendres Volcan.






- Altitude de l'aérodrome : 665 ft
- Code IATA : NOC


EIKN - Connaught / Knock- Ireland West

DERNIER METAR :
  • 200800Z 20008KT CAVOK 04/03 Q1044 NOSIG

METARs EXPIRÉS :
  • 200730Z 20004KT 160V240 CAVOK 04/03 Q1043 NOSIG
  • 200700Z 21006KT 180V240 CAVOK 04/03 Q1044 NOSIG
  • 200630Z 19005KT 150V230 CAVOK 03/03 Q1044 NOSIG
  • 200600Z 20006KT 160V230 CAVOK 03/03 Q1044 NOSIG

TAF TAF EIKN
Valide du 20 à 06h jusqu'au 21 à 06h UTC


200500Z 2006/2106 19009KT 9999 FEW012 BKN025
PROB40
TEMPO 2006/2011 3000 BR BKN007
PROB30
TEMPO 2006/2011 0400 FG BKN001
PROB30
TEMPO 2011/2024 BKN010
BECMG 2013/2015 22010KT
TEMPO 2100/2103 4000 BR BKN010
BECMG 2103/2105 SCT005 BKN008
TEMPO 2104/2106 3000 BR BKN004



MET'MAP, la Météo Aéronautique d'un coup d'oeil ! - Copyright ORBIFLY Décembre 2007 - Disclaimer

ORBIFLY MET'MAP TEAM :

Programmation & Développement : Alexandra Zaïnal
Sur une idée originale de : Baudouin d'Aumeries
Assistance à la programmation : Marc-Olivier Méhu
Soutien technique & logistique : Manuel Goepfert

Contact : metmap@orbifly.com




SOURCES & CREDITS :

   NOAA